sensor_id;sensor_type;location;lat;lon;timestamp;P1;durP1;ratioP1;P2;durP2;ratioP2
80400;SDS011;69727;53.132;8.230;2023-10-19T00:01:54;22.42;;;10.68;;
80400;SDS011;69727;53.132;8.230;2023-10-19T00:04:20;19.58;;;10.70;;
80400;SDS011;69727;53.132;8.230;2023-10-19T00:06:47;21.30;;;11.25;;
80400;SDS011;69727;53.132;8.230;2023-10-19T00:09:14;20.38;;;10.98;;
80400;SDS011;69727;53.132;8.230;2023-10-19T00:11:40;20.55;;;10.48;;
80400;SDS011;69727;53.132;8.230;2023-10-19T00:14:06;22.77;;;10.90;;
80400;SDS011;69727;53.132;8.230;2023-10-19T00:16:41;22.40;;;11.05;;
80400;SDS011;69727;53.132;8.230;2023-10-19T00:21:44;22.15;;;10.68;;
80400;SDS011;69727;53.132;8.230;2023-10-19T00:24:17;22.70;;;11.70;;
80400;SDS011;69727;53.132;8.230;2023-10-19T00:26:44;26.30;;;12.20;;
80400;SDS011;69727;53.132;8.230;2023-10-19T00:29:10;21.33;;;11.90;;
80400;SDS011;69727;53.132;8.230;2023-10-19T00:34:28;23.02;;;11.57;;
80400;SDS011;69727;53.132;8.230;2023-10-19T00:36:54;26.30;;;12.10;;
80400;SDS011;69727;53.132;8.230;2023-10-19T00:39:22;24.13;;;12.02;;
80400;SDS011;69727;53.132;8.230;2023-10-19T00:41:52;26.20;;;12.45;;
80400;SDS011;69727;53.132;8.230;2023-10-19T00:44:22;26.02;;;11.88;;
80400;SDS011;69727;53.132;8.230;2023-10-19T00:46:50;25.73;;;12.60;;
80400;SDS011;69727;53.132;8.230;2023-10-19T00:49:26;30.77;;;14.55;;
80400;SDS011;69727;53.132;8.230;2023-10-19T00:51:52;23.02;;;11.65;;
80400;SDS011;69727;53.132;8.230;2023-10-19T00:54:44;23.90;;;13.05;;
80400;SDS011;69727;53.132;8.230;2023-10-19T00:57:14;24.73;;;12.40;;
80400;SDS011;69727;53.132;8.230;2023-10-19T00:59:45;32.67;;;12.95;;
80400;SDS011;69727;53.132;8.230;2023-10-19T01:02:25;26.95;;;12.57;;
80400;SDS011;69727;53.132;8.230;2023-10-19T01:04:52;29.17;;;13.77;;
80400;SDS011;69727;53.132;8.230;2023-10-19T01:07:24;30.13;;;14.35;;
80400;SDS011;69727;53.132;8.230;2023-10-19T01:09:49;31.98;;;15.25;;
80400;SDS011;69727;53.132;8.230;2023-10-19T01:12:19;31.38;;;15.18;;
80400;SDS011;69727;53.132;8.230;2023-10-19T01:17:52;30.40;;;14.57;;
80400;SDS011;69727;53.132;8.230;2023-10-19T01:20:18;31.83;;;15.57;;
80400;SDS011;69727;53.132;8.230;2023-10-19T01:23:08;32.53;;;15.00;;
80400;SDS011;69727;53.132;8.230;2023-10-19T01:25:50;29.70;;;14.80;;
80400;SDS011;69727;53.132;8.230;2023-10-19T01:28:23;32.35;;;15.30;;
80400;SDS011;69727;53.132;8.230;2023-10-19T01:30:53;37.95;;;15.60;;
80400;SDS011;69727;53.132;8.230;2023-10-19T01:33:19;35.25;;;16.40;;
80400;SDS011;69727;53.132;8.230;2023-10-19T01:35:49;33.95;;;15.70;;
80400;SDS011;69727;53.132;8.230;2023-10-19T01:38:33;33.08;;;15.52;;
80400;SDS011;69727;53.132;8.230;2023-10-19T01:40:59;30.95;;;14.85;;
80400;SDS011;69727;53.132;8.230;2023-10-19T01:43:29;32.05;;;15.27;;
80400;SDS011;69727;53.132;8.230;2023-10-19T01:45:56;33.03;;;15.80;;
80400;SDS011;69727;53.132;8.230;2023-10-19T01:48:23;33.33;;;15.70;;
80400;SDS011;69727;53.132;8.230;2023-10-19T01:51:07;34.15;;;16.02;;
80400;SDS011;69727;53.132;8.230;2023-10-19T01:53:39;35.50;;;16.45;;
80400;SDS011;69727;53.132;8.230;2023-10-19T01:56:08;33.30;;;15.57;;
80400;SDS011;69727;53.132;8.230;2023-10-19T01:58:35;36.22;;;16.25;;
80400;SDS011;69727;53.132;8.230;2023-10-19T02:01:04;34.17;;;16.60;;
80400;SDS011;69727;53.132;8.230;2023-10-19T02:03:55;37.63;;;16.15;;
80400;SDS011;69727;53.132;8.230;2023-10-19T02:06:25;35.28;;;16.25;;
80400;SDS011;69727;53.132;8.230;2023-10-19T02:11:55;32.17;;;14.48;;
80400;SDS011;69727;53.132;8.230;2023-10-19T02:14:22;34.22;;;16.10;;
80400;SDS011;69727;53.132;8.230;2023-10-19T02:16:50;40.28;;;17.33;;
80400;SDS011;69727;53.132;8.230;2023-10-19T02:19:18;31.55;;;16.40;;
80400;SDS011;69727;53.132;8.230;2023-10-19T02:21:45;33.97;;;16.50;;
80400;SDS011;69727;53.132;8.230;2023-10-19T02:24:13;32.08;;;15.88;;
80400;SDS011;69727;53.132;8.230;2023-10-19T02:26:39;34.95;;;16.30;;
80400;SDS011;69727;53.132;8.230;2023-10-19T02:29:05;36.25;;;16.48;;
80400;SDS011;69727;53.132;8.230;2023-10-19T02:34:03;29.63;;;15.07;;
80400;SDS011;69727;53.132;8.230;2023-10-19T02:36:29;37.33;;;16.10;;
80400;SDS011;69727;53.132;8.230;2023-10-19T02:39:02;31.70;;;15.63;;
80400;SDS011;69727;53.132;8.230;2023-10-19T02:41:32;39.45;;;18.13;;
80400;SDS011;69727;53.132;8.230;2023-10-19T02:44:13;34.17;;;16.23;;
80400;SDS011;69727;53.132;8.230;2023-10-19T02:46:46;32.45;;;15.82;;
80400;SDS011;69727;53.132;8.230;2023-10-19T02:49:17;34.63;;;16.50;;
80400;SDS011;69727;53.132;8.230;2023-10-19T02:51:44;37.90;;;16.08;;
80400;SDS011;69727;53.132;8.230;2023-10-19T02:54:10;35.35;;;17.02;;
80400;SDS011;69727;53.132;8.230;2023-10-19T02:56:50;34.25;;;16.40;;
80400;SDS011;69727;53.132;8.230;2023-10-19T02:59:22;34.45;;;15.63;;
80400;SDS011;69727;53.132;8.230;2023-10-19T03:01:52;34.05;;;16.83;;
80400;SDS011;69727;53.132;8.230;2023-10-19T03:07:03;29.50;;;15.15;;
80400;SDS011;69727;53.132;8.230;2023-10-19T03:09:29;32.33;;;15.75;;
80400;SDS011;69727;53.132;8.230;2023-10-19T03:11:55;36.33;;;16.95;;
80400;SDS011;69727;53.132;8.230;2023-10-19T03:14:28;35.85;;;16.30;;
80400;SDS011;69727;53.132;8.230;2023-10-19T03:16:54;36.35;;;16.05;;
80400;SDS011;69727;53.132;8.230;2023-10-19T03:19:22;34.25;;;16.98;;
80400;SDS011;69727;53.132;8.230;2023-10-19T03:21:51;37.25;;;16.50;;
80400;SDS011;69727;53.132;8.230;2023-10-19T03:24:20;34.33;;;16.55;;
80400;SDS011;69727;53.132;8.230;2023-10-19T03:27:01;33.75;;;16.02;;
80400;SDS011;69727;53.132;8.230;2023-10-19T03:29:49;31.23;;;15.48;;
80400;SDS011;69727;53.132;8.230;2023-10-19T03:32:21;33.58;;;15.65;;
80400;SDS011;69727;53.132;8.230;2023-10-19T03:34:52;34.03;;;15.25;;
80400;SDS011;69727;53.132;8.230;2023-10-19T03:37:20;31.30;;;14.95;;
80400;SDS011;69727;53.132;8.230;2023-10-19T03:39:50;32.65;;;16.00;;
80400;SDS011;69727;53.132;8.230;2023-10-19T03:42:16;33.45;;;15.50;;
80400;SDS011;69727;53.132;8.230;2023-10-19T03:44:42;30.23;;;15.00;;
80400;SDS011;69727;53.132;8.230;2023-10-19T03:47:13;37.55;;;16.60;;
80400;SDS011;69727;53.132;8.230;2023-10-19T03:49:43;33.22;;;15.80;;
80400;SDS011;69727;53.132;8.230;2023-10-19T03:52:09;36.17;;;15.98;;
80400;SDS011;69727;53.132;8.230;2023-10-19T03:54:35;32.97;;;15.10;;
80400;SDS011;69727;53.132;8.230;2023-10-19T03:57:07;35.55;;;16.83;;
80400;SDS011;69727;53.132;8.230;2023-10-19T03:59:50;34.47;;;16.20;;
80400;SDS011;69727;53.132;8.230;2023-10-19T04:02:22;35.30;;;16.45;;
80400;SDS011;69727;53.132;8.230;2023-10-19T04:04:48;31.67;;;14.98;;
80400;SDS011;69727;53.132;8.230;2023-10-19T04:07:17;35.85;;;15.73;;
80400;SDS011;69727;53.132;8.230;2023-10-19T04:09:53;33.83;;;15.48;;
80400;SDS011;69727;53.132;8.230;2023-10-19T04:12:31;35.95;;;16.75;;
80400;SDS011;69727;53.132;8.230;2023-10-19T04:15:00;30.63;;;14.93;;
80400;SDS011;69727;53.132;8.230;2023-10-19T04:17:35;30.90;;;14.30;;
80400;SDS011;69727;53.132;8.230;2023-10-19T04:20:01;31.15;;;15.35;;
80400;SDS011;69727;53.132;8.230;2023-10-19T04:22:40;32.78;;;15.65;;
80400;SDS011;69727;53.132;8.230;2023-10-19T04:25:05;33.43;;;15.60;;
80400;SDS011;69727;53.132;8.230;2023-10-19T04:27:31;30.95;;;14.70;;
80400;SDS011;69727;53.132;8.230;2023-10-19T04:30:00;31.48;;;14.90;;
80400;SDS011;69727;53.132;8.230;2023-10-19T04:32:26;29.70;;;13.70;;
80400;SDS011;69727;53.132;8.230;2023-10-19T04:34:55;31.63;;;14.80;;
80400;SDS011;69727;53.132;8.230;2023-10-19T04:37:20;27.40;;;13.50;;
80400;SDS011;69727;53.132;8.230;2023-10-19T04:39:48;30.40;;;14.50;;
80400;SDS011;69727;53.132;8.230;2023-10-19T04:42:14;31.00;;;14.93;;
80400;SDS011;69727;53.132;8.230;2023-10-19T04:44:40;30.85;;;13.65;;
80400;SDS011;69727;53.132;8.230;2023-10-19T04:47:06;31.77;;;14.75;;
80400;SDS011;69727;53.132;8.230;2023-10-19T04:49:31;31.77;;;14.68;;
80400;SDS011;69727;53.132;8.230;2023-10-19T04:51:57;32.10;;;13.82;;
80400;SDS011;69727;53.132;8.230;2023-10-19T04:54:22;30.70;;;14.50;;
80400;SDS011;69727;53.132;8.230;2023-10-19T04:56:47;29.13;;;13.85;;
80400;SDS011;69727;53.132;8.230;2023-10-19T04:59:13;31.05;;;14.48;;
80400;SDS011;69727;53.132;8.230;2023-10-19T05:01:38;29.25;;;13.77;;
80400;SDS011;69727;53.132;8.230;2023-10-19T05:04:06;27.27;;;13.38;;
80400;SDS011;69727;53.132;8.230;2023-10-19T05:06:31;26.45;;;12.63;;
80400;SDS011;69727;53.132;8.230;2023-10-19T05:08:56;25.55;;;13.60;;
80400;SDS011;69727;53.132;8.230;2023-10-19T05:11:22;28.20;;;14.20;;
80400;SDS011;69727;53.132;8.230;2023-10-19T05:13:48;26.85;;;13.82;;
80400;SDS011;69727;53.132;8.230;2023-10-19T05:16:13;28.65;;;14.00;;
80400;SDS011;69727;53.132;8.230;2023-10-19T05:18:39;26.83;;;13.02;;
80400;SDS011;69727;53.132;8.230;2023-10-19T05:21:04;23.03;;;11.93;;
80400;SDS011;69727;53.132;8.230;2023-10-19T05:23:30;24.02;;;12.43;;
80400;SDS011;69727;53.132;8.230;2023-10-19T05:26:00;26.08;;;12.75;;
80400;SDS011;69727;53.132;8.230;2023-10-19T05:28:27;27.42;;;12.93;;
80400;SDS011;69727;53.132;8.230;2023-10-19T05:30:52;21.95;;;11.60;;
80400;SDS011;69727;53.132;8.230;2023-10-19T05:33:19;24.83;;;12.38;;
80400;SDS011;69727;53.132;8.230;2023-10-19T05:35:48;25.40;;;12.52;;
80400;SDS011;69727;53.132;8.230;2023-10-19T05:38:15;29.08;;;13.82;;
80400;SDS011;69727;53.132;8.230;2023-10-19T05:40:41;24.48;;;12.18;;
80400;SDS011;69727;53.132;8.230;2023-10-19T05:43:10;25.65;;;12.18;;
80400;SDS011;69727;53.132;8.230;2023-10-19T05:45:36;20.30;;;11.43;;
80400;SDS011;69727;53.132;8.230;2023-10-19T05:48:02;25.02;;;10.70;;
80400;SDS011;69727;53.132;8.230;2023-10-19T05:50:34;24.67;;;11.77;;
80400;SDS011;69727;53.132;8.230;2023-10-19T05:53:00;20.52;;;10.82;;
80400;SDS011;69727;53.132;8.230;2023-10-19T05:55:26;24.27;;;11.43;;
80400;SDS011;69727;53.132;8.230;2023-10-19T05:57:51;21.93;;;11.03;;
80400;SDS011;69727;53.132;8.230;2023-10-19T06:00:16;22.35;;;11.00;;
80400;SDS011;69727;53.132;8.230;2023-10-19T06:02:45;25.33;;;11.75;;
80400;SDS011;69727;53.132;8.230;2023-10-19T06:05:12;24.73;;;11.45;;
80400;SDS011;69727;53.132;8.230;2023-10-19T06:07:40;23.88;;;10.93;;
80400;SDS011;69727;53.132;8.230;2023-10-19T06:10:06;20.38;;;10.40;;
80400;SDS011;69727;53.132;8.230;2023-10-19T06:12:32;23.30;;;11.05;;
80400;SDS011;69727;53.132;8.230;2023-10-19T06:14:58;19.55;;;10.70;;
80400;SDS011;69727;53.132;8.230;2023-10-19T06:17:25;23.17;;;11.30;;
80400;SDS011;69727;53.132;8.230;2023-10-19T06:19:54;20.58;;;10.00;;
80400;SDS011;69727;53.132;8.230;2023-10-19T06:22:20;23.60;;;11.40;;
80400;SDS011;69727;53.132;8.230;2023-10-19T06:24:45;20.80;;;9.87;;
80400;SDS011;69727;53.132;8.230;2023-10-19T06:27:11;21.27;;;10.27;;
80400;SDS011;69727;53.132;8.230;2023-10-19T06:29:36;20.47;;;9.93;;
80400;SDS011;69727;53.132;8.230;2023-10-19T06:32:02;22.03;;;9.43;;
80400;SDS011;69727;53.132;8.230;2023-10-19T06:34:27;20.05;;;9.68;;
80400;SDS011;69727;53.132;8.230;2023-10-19T06:36:53;18.42;;;9.30;;
80400;SDS011;69727;53.132;8.230;2023-10-19T06:39:19;17.05;;;9.00;;
80400;SDS011;69727;53.132;8.230;2023-10-19T06:41:46;16.88;;;8.30;;
80400;SDS011;69727;53.132;8.230;2023-10-19T06:44:12;16.38;;;8.77;;
80400;SDS011;69727;53.132;8.230;2023-10-19T06:46:38;18.30;;;8.98;;
80400;SDS011;69727;53.132;8.230;2023-10-19T06:49:04;18.58;;;8.27;;
80400;SDS011;69727;53.132;8.230;2023-10-19T06:51:30;18.60;;;8.52;;
80400;SDS011;69727;53.132;8.230;2023-10-19T06:53:55;18.15;;;8.52;;
80400;SDS011;69727;53.132;8.230;2023-10-19T06:56:21;17.10;;;8.32;;
80400;SDS011;69727;53.132;8.230;2023-10-19T06:58:46;17.77;;;8.30;;
80400;SDS011;69727;53.132;8.230;2023-10-19T07:01:13;13.35;;;6.90;;
80400;SDS011;69727;53.132;8.230;2023-10-19T07:03:41;14.07;;;8.20;;
80400;SDS011;69727;53.132;8.230;2023-10-19T07:06:07;14.95;;;7.43;;
80400;SDS011;69727;53.132;8.230;2023-10-19T07:08:33;13.77;;;7.10;;
80400;SDS011;69727;53.132;8.230;2023-10-19T07:10:58;14.52;;;7.38;;
80400;SDS011;69727;53.132;8.230;2023-10-19T07:13:25;13.73;;;6.53;;
80400;SDS011;69727;53.132;8.230;2023-10-19T07:15:50;14.57;;;7.07;;
80400;SDS011;69727;53.132;8.230;2023-10-19T07:18:16;14.02;;;7.82;;
80400;SDS011;69727;53.132;8.230;2023-10-19T07:20:42;14.27;;;7.32;;
80400;SDS011;69727;53.132;8.230;2023-10-19T07:23:08;15.60;;;7.55;;
80400;SDS011;69727;53.132;8.230;2023-10-19T07:25:49;13.73;;;7.60;;
80400;SDS011;69727;53.132;8.230;2023-10-19T07:28:24;15.80;;;7.50;;
80400;SDS011;69727;53.132;8.230;2023-10-19T07:30:54;13.93;;;7.03;;
80400;SDS011;69727;53.132;8.230;2023-10-19T07:33:21;11.95;;;6.80;;
80400;SDS011;69727;53.132;8.230;2023-10-19T07:35:47;12.23;;;6.55;;
80400;SDS011;69727;53.132;8.230;2023-10-19T07:38:17;13.07;;;6.68;;
80400;SDS011;69727;53.132;8.230;2023-10-19T07:40:45;12.90;;;6.88;;
80400;SDS011;69727;53.132;8.230;2023-10-19T07:43:11;14.32;;;6.45;;
80400;SDS011;69727;53.132;8.230;2023-10-19T07:45:36;14.07;;;7.15;;
80400;SDS011;69727;53.132;8.230;2023-10-19T07:48:03;13.40;;;6.82;;
80400;SDS011;69727;53.132;8.230;2023-10-19T07:50:33;15.00;;;7.85;;
80400;SDS011;69727;53.132;8.230;2023-10-19T07:52:59;13.95;;;7.05;;
80400;SDS011;69727;53.132;8.230;2023-10-19T07:55:24;13.85;;;7.32;;
80400;SDS011;69727;53.132;8.230;2023-10-19T07:57:50;12.87;;;6.57;;
80400;SDS011;69727;53.132;8.230;2023-10-19T08:00:17;11.57;;;6.43;;
80400;SDS011;69727;53.132;8.230;2023-10-19T08:02:44;13.85;;;6.88;;
80400;SDS011;69727;53.132;8.230;2023-10-19T08:05:11;12.55;;;6.72;;
80400;SDS011;69727;53.132;8.230;2023-10-19T08:07:38;13.95;;;7.03;;
80400;SDS011;69727;53.132;8.230;2023-10-19T08:10:05;13.18;;;6.55;;
80400;SDS011;69727;53.132;8.230;2023-10-19T08:12:34;13.07;;;6.63;;
80400;SDS011;69727;53.132;8.230;2023-10-19T08:15:00;12.85;;;6.32;;
80400;SDS011;69727;53.132;8.230;2023-10-19T08:17:26;10.95;;;5.93;;
80400;SDS011;69727;53.132;8.230;2023-10-19T08:19:52;10.27;;;5.85;;
80400;SDS011;69727;53.132;8.230;2023-10-19T08:22:17;11.23;;;5.82;;
80400;SDS011;69727;53.132;8.230;2023-10-19T08:24:44;12.02;;;6.53;;
80400;SDS011;69727;53.132;8.230;2023-10-19T08:27:11;11.57;;;6.13;;
80400;SDS011;69727;53.132;8.230;2023-10-19T08:29:38;10.95;;;6.18;;
80400;SDS011;69727;53.132;8.230;2023-10-19T08:32:04;13.57;;;6.18;;
80400;SDS011;69727;53.132;8.230;2023-10-19T08:34:29;11.98;;;6.22;;
80400;SDS011;69727;53.132;8.230;2023-10-19T08:37:00;8.68;;;5.10;;
80400;SDS011;69727;53.132;8.230;2023-10-19T08:39:25;10.95;;;5.45;;
80400;SDS011;69727;53.132;8.230;2023-10-19T08:41:52;9.63;;;5.68;;
80400;SDS011;69727;53.132;8.230;2023-10-19T08:44:19;12.57;;;6.32;;
80400;SDS011;69727;53.132;8.230;2023-10-19T08:46:45;9.07;;;5.22;;
80400;SDS011;69727;53.132;8.230;2023-10-19T08:49:12;11.10;;;5.53;;
80400;SDS011;69727;53.132;8.230;2023-10-19T08:51:45;10.85;;;5.30;;
80400;SDS011;69727;53.132;8.230;2023-10-19T08:54:14;8.75;;;4.97;;
80400;SDS011;69727;53.132;8.230;2023-10-19T08:56:40;8.50;;;4.47;;
80400;SDS011;69727;53.132;8.230;2023-10-19T08:59:12;8.75;;;4.72;;
80400;SDS011;69727;53.132;8.230;2023-10-19T09:01:38;9.35;;;4.90;;
80400;SDS011;69727;53.132;8.230;2023-10-19T09:04:04;8.60;;;4.40;;
80400;SDS011;69727;53.132;8.230;2023-10-19T09:06:36;7.97;;;4.63;;
80400;SDS011;69727;53.132;8.230;2023-10-19T09:09:12;9.10;;;4.93;;
80400;SDS011;69727;53.132;8.230;2023-10-19T09:11:50;7.55;;;3.97;;
80400;SDS011;69727;53.132;8.230;2023-10-19T09:14:30;9.73;;;4.97;;
80400;SDS011;69727;53.132;8.230;2023-10-19T09:16:58;8.38;;;5.05;;
80400;SDS011;69727;53.132;8.230;2023-10-19T09:19:35;8.32;;;4.47;;
80400;SDS011;69727;53.132;8.230;2023-10-19T09:22:10;7.43;;;4.35;;
80400;SDS011;69727;53.132;8.230;2023-10-19T09:24:50;8.40;;;4.05;;
80400;SDS011;69727;53.132;8.230;2023-10-19T09:27:21;12.27;;;4.75;;
80400;SDS011;69727;53.132;8.230;2023-10-19T09:29:47;8.13;;;4.03;;
80400;SDS011;69727;53.132;8.230;2023-10-19T09:32:16;7.47;;;4.32;;
80400;SDS011;69727;53.132;8.230;2023-10-19T09:34:41;6.95;;;4.07;;
80400;SDS011;69727;53.132;8.230;2023-10-19T09:37:10;8.05;;;4.60;;
80400;SDS011;69727;53.132;8.230;2023-10-19T09:39:38;8.43;;;4.10;;
80400;SDS011;69727;53.132;8.230;2023-10-19T09:42:08;8.13;;;4.47;;
80400;SDS011;69727;53.132;8.230;2023-10-19T09:44:44;7.40;;;4.00;;
80400;SDS011;69727;53.132;8.230;2023-10-19T09:47:20;7.65;;;4.10;;
80400;SDS011;69727;53.132;8.230;2023-10-19T09:49:55;7.55;;;4.68;;
80400;SDS011;69727;53.132;8.230;2023-10-19T09:52:22;7.40;;;3.65;;
80400;SDS011;69727;53.132;8.230;2023-10-19T09:57:43;7.38;;;3.78;;
80400;SDS011;69727;53.132;8.230;2023-10-19T10:00:16;6.90;;;3.80;;
80400;SDS011;69727;53.132;8.230;2023-10-19T10:02:48;7.13;;;3.72;;
80400;SDS011;69727;53.132;8.230;2023-10-19T10:10:42;7.32;;;4.22;;
80400;SDS011;69727;53.132;8.230;2023-10-19T10:15:51;7.22;;;4.32;;
80400;SDS011;69727;53.132;8.230;2023-10-19T10:20:43;8.17;;;3.97;;
80400;SDS011;69727;53.132;8.230;2023-10-19T10:23:19;7.10;;;3.87;;
80400;SDS011;69727;53.132;8.230;2023-10-19T10:25:49;8.88;;;4.57;;
80400;SDS011;69727;53.132;8.230;2023-10-19T10:28:19;8.07;;;4.10;;
80400;SDS011;69727;53.132;8.230;2023-10-19T10:33:42;7.43;;;4.45;;
80400;SDS011;69727;53.132;8.230;2023-10-19T10:36:10;8.05;;;4.25;;
80400;SDS011;69727;53.132;8.230;2023-10-19T10:38:36;7.82;;;4.40;;
80400;SDS011;69727;53.132;8.230;2023-10-19T10:41:02;7.65;;;4.43;;
80400;SDS011;69727;53.132;8.230;2023-10-19T10:43:29;6.75;;;3.92;;
80400;SDS011;69727;53.132;8.230;2023-10-19T10:46:07;7.43;;;4.20;;
80400;SDS011;69727;53.132;8.230;2023-10-19T10:48:32;7.32;;;4.20;;
80400;SDS011;69727;53.132;8.230;2023-10-19T10:50:58;7.90;;;4.20;;
80400;SDS011;69727;53.132;8.230;2023-10-19T10:53:24;7.82;;;4.53;;
80400;SDS011;69727;53.132;8.230;2023-10-19T10:55:55;7.65;;;4.30;;
80400;SDS011;69727;53.132;8.230;2023-10-19T10:58:20;6.95;;;4.10;;
80400;SDS011;69727;53.132;8.230;2023-10-19T11:00:46;7.22;;;4.05;;
80400;SDS011;69727;53.132;8.230;2023-10-19T11:03:14;7.40;;;3.92;;
80400;SDS011;69727;53.132;8.230;2023-10-19T11:05:41;7.07;;;4.05;;
80400;SDS011;69727;53.132;8.230;2023-10-19T11:08:07;7.63;;;4.13;;
80400;SDS011;69727;53.132;8.230;2023-10-19T11:10:44;7.75;;;4.03;;
80400;SDS011;69727;53.132;8.230;2023-10-19T11:13:14;6.35;;;4.05;;
80400;SDS011;69727;53.132;8.230;2023-10-19T11:15:52;7.03;;;4.20;;
80400;SDS011;69727;53.132;8.230;2023-10-19T11:18:28;7.57;;;4.30;;
80400;SDS011;69727;53.132;8.230;2023-10-19T11:20:54;6.80;;;4.05;;
80400;SDS011;69727;53.132;8.230;2023-10-19T11:23:23;6.72;;;4.00;;
80400;SDS011;69727;53.132;8.230;2023-10-19T11:26:00;6.03;;;3.75;;
80400;SDS011;69727;53.132;8.230;2023-10-19T11:28:27;7.93;;;4.40;;
80400;SDS011;69727;53.132;8.230;2023-10-19T11:30:53;9.07;;;4.68;;
80400;SDS011;69727;53.132;8.230;2023-10-19T11:33:20;6.82;;;4.00;;
80400;SDS011;69727;53.132;8.230;2023-10-19T11:35:49;7.30;;;4.45;;
80400;SDS011;69727;53.132;8.230;2023-10-19T11:38:15;8.15;;;4.90;;
80400;SDS011;69727;53.132;8.230;2023-10-19T11:40:42;8.40;;;4.60;;
80400;SDS011;69727;53.132;8.230;2023-10-19T11:43:08;8.53;;;4.90;;
80400;SDS011;69727;53.132;8.230;2023-10-19T11:45:34;9.73;;;4.82;;
80400;SDS011;69727;53.132;8.230;2023-10-19T11:48:00;8.18;;;4.63;;
80400;SDS011;69727;53.132;8.230;2023-10-19T11:50:26;8.23;;;4.70;;
80400;SDS011;69727;53.132;8.230;2023-10-19T11:52:51;9.00;;;5.20;;
80400;SDS011;69727;53.132;8.230;2023-10-19T11:55:17;10.18;;;4.28;;
80400;SDS011;69727;53.132;8.230;2023-10-19T11:57:43;8.70;;;5.13;;
80400;SDS011;69727;53.132;8.230;2023-10-19T12:00:09;9.15;;;5.18;;
80400;SDS011;69727;53.132;8.230;2023-10-19T12:02:38;7.90;;;5.10;;
80400;SDS011;69727;53.132;8.230;2023-10-19T12:05:06;8.68;;;5.47;;
80400;SDS011;69727;53.132;8.230;2023-10-19T12:07:38;9.90;;;4.90;;
80400;SDS011;69727;53.132;8.230;2023-10-19T12:10:09;8.80;;;5.22;;
80400;SDS011;69727;53.132;8.230;2023-10-19T12:12:38;9.45;;;5.78;;
80400;SDS011;69727;53.132;8.230;2023-10-19T12:15:04;10.20;;;5.45;;
80400;SDS011;69727;53.132;8.230;2023-10-19T12:17:32;10.80;;;5.90;;
80400;SDS011;69727;53.132;8.230;2023-10-19T12:19:57;8.18;;;5.38;;
80400;SDS011;69727;53.132;8.230;2023-10-19T12:22:23;10.70;;;5.80;;
80400;SDS011;69727;53.132;8.230;2023-10-19T12:24:53;9.75;;;5.43;;
80400;SDS011;69727;53.132;8.230;2023-10-19T12:27:19;9.10;;;6.05;;
80400;SDS011;69727;53.132;8.230;2023-10-19T12:29:45;9.98;;;6.25;;
80400;SDS011;69727;53.132;8.230;2023-10-19T12:32:10;11.07;;;6.90;;
80400;SDS011;69727;53.132;8.230;2023-10-19T12:34:39;11.70;;;7.05;;
80400;SDS011;69727;53.132;8.230;2023-10-19T12:37:05;11.35;;;7.65;;
80400;SDS011;69727;53.132;8.230;2023-10-19T12:39:33;12.25;;;7.10;;
80400;SDS011;69727;53.132;8.230;2023-10-19T12:42:05;10.05;;;6.15;;
80400;SDS011;69727;53.132;8.230;2023-10-19T12:44:33;10.45;;;6.65;;
80400;SDS011;69727;53.132;8.230;2023-10-19T12:47:04;12.57;;;7.22;;
80400;SDS011;69727;53.132;8.230;2023-10-19T12:49:34;11.63;;;7.55;;
80400;SDS011;69727;53.132;8.230;2023-10-19T12:52:00;12.43;;;7.75;;
80400;SDS011;69727;53.132;8.230;2023-10-19T12:54:28;10.73;;;7.10;;
80400;SDS011;69727;53.132;8.230;2023-10-19T12:56:54;10.77;;;6.38;;
80400;SDS011;69727;53.132;8.230;2023-10-19T12:59:19;10.77;;;6.90;;
80400;SDS011;69727;53.132;8.230;2023-10-19T13:01:45;10.23;;;7.05;;
80400;SDS011;69727;53.132;8.230;2023-10-19T13:04:14;12.70;;;7.25;;
80400;SDS011;69727;53.132;8.230;2023-10-19T13:06:43;11.63;;;7.35;;
80400;SDS011;69727;53.132;8.230;2023-10-19T13:09:09;12.20;;;7.57;;
80400;SDS011;69727;53.132;8.230;2023-10-19T13:11:35;13.93;;;7.82;;
80400;SDS011;69727;53.132;8.230;2023-10-19T13:14:00;12.43;;;7.53;;
80400;SDS011;69727;53.132;8.230;2023-10-19T13:16:26;12.02;;;7.43;;
80400;SDS011;69727;53.132;8.230;2023-10-19T13:18:52;14.10;;;7.82;;
80400;SDS011;69727;53.132;8.230;2023-10-19T13:21:18;13.32;;;7.85;;
80400;SDS011;69727;53.132;8.230;2023-10-19T13:26:13;13.88;;;6.85;;
80400;SDS011;69727;53.132;8.230;2023-10-19T13:28:45;13.07;;;7.75;;
80400;SDS011;69727;53.132;8.230;2023-10-19T13:31:11;13.07;;;7.70;;
80400;SDS011;69727;53.132;8.230;2023-10-19T13:33:40;11.45;;;6.97;;
80400;SDS011;69727;53.132;8.230;2023-10-19T13:38:34;12.63;;;7.13;;
80400;SDS011;69727;53.132;8.230;2023-10-19T13:41:03;12.93;;;7.65;;
80400;SDS011;69727;53.132;8.230;2023-10-19T13:43:35;15.43;;;8.02;;
80400;SDS011;69727;53.132;8.230;2023-10-19T13:46:01;16.67;;;7.68;;
80400;SDS011;69727;53.132;8.230;2023-10-19T13:48:27;15.13;;;8.02;;
80400;SDS011;69727;53.132;8.230;2023-10-19T13:50:52;13.68;;;7.95;;
80400;SDS011;69727;53.132;8.230;2023-10-19T13:53:25;16.80;;;7.55;;
80400;SDS011;69727;53.132;8.230;2023-10-19T13:55:53;12.88;;;7.10;;
80400;SDS011;69727;53.132;8.230;2023-10-19T13:58:19;13.10;;;7.90;;
80400;SDS011;69727;53.132;8.230;2023-10-19T14:00:44;14.33;;;8.13;;
80400;SDS011;69727;53.132;8.230;2023-10-19T14:03:10;14.38;;;7.88;;
80400;SDS011;69727;53.132;8.230;2023-10-19T14:05:44;14.43;;;7.70;;
80400;SDS011;69727;53.132;8.230;2023-10-19T14:08:14;13.95;;;7.57;;
80400;SDS011;69727;53.132;8.230;2023-10-19T14:10:41;12.80;;;7.00;;
80400;SDS011;69727;53.132;8.230;2023-10-19T14:13:07;14.23;;;8.57;;
80400;SDS011;69727;53.132;8.230;2023-10-19T14:15:33;13.85;;;7.80;;
80400;SDS011;69727;53.132;8.230;2023-10-19T14:17:59;13.70;;;8.18;;
80400;SDS011;69727;53.132;8.230;2023-10-19T14:20:25;13.98;;;8.20;;
80400;SDS011;69727;53.132;8.230;2023-10-19T14:22:53;13.50;;;8.18;;
80400;SDS011;69727;53.132;8.230;2023-10-19T14:25:19;14.67;;;8.17;;
80400;SDS011;69727;53.132;8.230;2023-10-19T14:27:49;13.75;;;7.88;;
80400;SDS011;69727;53.132;8.230;2023-10-19T14:30:21;13.95;;;7.90;;
80400;SDS011;69727;53.132;8.230;2023-10-19T14:32:48;15.82;;;8.27;;
80400;SDS011;69727;53.132;8.230;2023-10-19T14:35:15;16.50;;;8.10;;
80400;SDS011;69727;53.132;8.230;2023-10-19T14:37:43;12.50;;;7.25;;
80400;SDS011;69727;53.132;8.230;2023-10-19T14:40:13;14.50;;;8.52;;
80400;SDS011;69727;53.132;8.230;2023-10-19T14:42:44;15.18;;;7.82;;
80400;SDS011;69727;53.132;8.230;2023-10-19T14:45:10;16.55;;;8.40;;
80400;SDS011;69727;53.132;8.230;2023-10-19T14:47:46;19.85;;;9.63;;
80400;SDS011;69727;53.132;8.230;2023-10-19T14:50:13;15.93;;;8.75;;
80400;SDS011;69727;53.132;8.230;2023-10-19T14:52:42;21.02;;;9.48;;
80400;SDS011;69727;53.132;8.230;2023-10-19T14:55:10;16.33;;;9.82;;
80400;SDS011;69727;53.132;8.230;2023-10-19T14:57:37;20.60;;;11.02;;
80400;SDS011;69727;53.132;8.230;2023-10-19T15:00:06;17.98;;;10.10;;
80400;SDS011;69727;53.132;8.230;2023-10-19T15:02:52;17.83;;;10.07;;
80400;SDS011;69727;53.132;8.230;2023-10-19T15:07:46;19.83;;;10.57;;
80400;SDS011;69727;53.132;8.230;2023-10-19T15:10:17;16.98;;;9.98;;
80400;SDS011;69727;53.132;8.230;2023-10-19T15:12:43;19.98;;;10.15;;
80400;SDS011;69727;53.132;8.230;2023-10-19T15:15:09;18.38;;;9.77;;
80400;SDS011;69727;53.132;8.230;2023-10-19T15:17:38;18.38;;;9.93;;
80400;SDS011;69727;53.132;8.230;2023-10-19T15:20:19;20.38;;;10.65;;